Current Weather

Matam/Ouro Sogui

Matam/Ouro Sogui, Senegal (GOSM)

Report from: Monday, May 23, 2022 7:00 AM GMT
Current time: Monday, May 23, 2022 7:57 AM GMT

Nearby weather
Weather history
Weather forecast

Temperature24.0°C (75.2°F)
Dew point17.0°C (62.6°F)
Winds 8 kts (4.1 m/s, 9.2 mph) North-Northwest (340°)
Clouds Sky clear
Altimeter29.85 in.Hg (1011 mB)
Relative humidity65 %
Density altitude1,386 ft. (422 m)
Remarks Ceiling and visibility OK
Flight conditions Visual Meteorological Conditions
Raw dataGOSM 230700Z 34008KT CAVOK 24/17 Q1011
An error has occurred. This application may no longer respond until reloaded. Reload 🗙